sensor_id;sensor_type;location;lat;lon;timestamp;pressure;altitude;pressure_sealevel;temperature;humidity
41044;BME280;51680;49.806;18.774;2023-04-21T00:00:34;97537.41;;;10.76;74.92
41044;BME280;51680;49.806;18.774;2023-04-21T00:03:38;97534.72;;;10.64;75.01
41044;BME280;51680;49.806;18.774;2023-04-21T00:06:41;97535.03;;;10.59;76.13
41044;BME280;51680;49.806;18.774;2023-04-21T00:09:43;97532.41;;;10.59;76.02
41044;BME280;51680;49.806;18.774;2023-04-21T00:12:45;97529.81;;;10.59;75.68
41044;BME280;51680;49.806;18.774;2023-04-21T00:15:47;97527.38;;;10.56;76.11
41044;BME280;51680;49.806;18.774;2023-04-21T00:18:50;97534.25;;;10.57;75.83
41044;BME280;51680;49.806;18.774;2023-04-21T00:21:52;97531.66;;;10.57;75.99
41044;BME280;51680;49.806;18.774;2023-04-21T00:24:58;97528.31;;;10.55;75.42
41044;BME280;51680;49.806;18.774;2023-04-21T00:27:59;97519.34;;;10.59;75.22
41044;BME280;51680;49.806;18.774;2023-04-21T00:31:01;97525.53;;;10.58;75.25
41044;BME280;51680;49.806;18.774;2023-04-21T00:34:04;97517.78;;;10.57;75.39
41044;BME280;51680;49.806;18.774;2023-04-21T00:37:06;97526.44;;;10.43;75.51
41044;BME280;51680;49.806;18.774;2023-04-21T00:40:08;97530.28;;;10.38;75.54
41044;BME280;51680;49.806;18.774;2023-04-21T00:43:13;97525.63;;;10.29;76.13
41044;BME280;51680;49.806;18.774;2023-04-21T00:46:15;97529.06;;;10.15;76.01
41044;BME280;51680;49.806;18.774;2023-04-21T00:49:18;97532.78;;;10.11;76.22
41044;BME280;51680;49.806;18.774;2023-04-21T00:52:22;97526.91;;;10.08;76.47
41044;BME280;51680;49.806;18.774;2023-04-21T00:55:24;97526.09;;;9.92;76.99
41044;BME280;51680;49.806;18.774;2023-04-21T00:58:26;97532.53;;;9.86;77.32
41044;BME280;51680;49.806;18.774;2023-04-21T01:01:29;97522.66;;;9.91;77.30
41044;BME280;51680;49.806;18.774;2023-04-21T01:04:34;97529.28;;;9.97;77.37
41044;BME280;51680;49.806;18.774;2023-04-21T01:07:39;97522.94;;;10.01;77.54
41044;BME280;51680;49.806;18.774;2023-04-21T01:10:40;97520.34;;;10.01;77.42
41044;BME280;51680;49.806;18.774;2023-04-21T01:14:01;97521.28;;;10.00;77.21
41044;BME280;51680;49.806;18.774;2023-04-21T01:17:03;97514.47;;;9.97;77.55
41044;BME280;51680;49.806;18.774;2023-04-21T01:20:10;97513.25;;;9.89;77.69
41044;BME280;51680;49.806;18.774;2023-04-21T01:23:14;97522.63;;;9.77;77.84
41044;BME280;51680;49.806;18.774;2023-04-21T01:26:18;97517.09;;;9.68;78.11
41044;BME280;51680;49.806;18.774;2023-04-21T01:29:20;97514.78;;;9.63;78.39
41044;BME280;51680;49.806;18.774;2023-04-21T01:32:24;97529.56;;;9.63;78.59
41044;BME280;51680;49.806;18.774;2023-04-21T01:35:28;97517.56;;;9.60;78.18
41044;BME280;51680;49.806;18.774;2023-04-21T01:38:31;97519.75;;;9.52;78.67
41044;BME280;51680;49.806;18.774;2023-04-21T01:41:33;97519.19;;;9.47;78.76
41044;BME280;51680;49.806;18.774;2023-04-21T01:44:36;97519.19;;;9.47;78.87
41044;BME280;51680;49.806;18.774;2023-04-21T01:47:37;97517.72;;;9.43;79.11
41044;BME280;51680;49.806;18.774;2023-04-21T01:50:40;97517.28;;;9.35;79.27
41044;BME280;51680;49.806;18.774;2023-04-21T01:53:45;97519.84;;;9.21;79.76
41044;BME280;51680;49.806;18.774;2023-04-21T01:56:47;97523.97;;;9.10;80.45
41044;BME280;51680;49.806;18.774;2023-04-21T01:59:49;97517.91;;;9.09;80.19
41044;BME280;51680;49.806;18.774;2023-04-21T02:02:51;97523.13;;;9.09;80.32
41044;BME280;51680;49.806;18.774;2023-04-21T02:05:52;97521.28;;;9.11;81.36
41044;BME280;51680;49.806;18.774;2023-04-21T02:08:55;97520.78;;;9.20;80.51
41044;BME280;51680;49.806;18.774;2023-04-21T02:12:01;97525.22;;;9.18;79.75
41044;BME280;51680;49.806;18.774;2023-04-21T02:15:04;97529.53;;;9.19;79.98
41044;BME280;51680;49.806;18.774;2023-04-21T02:18:06;97522.81;;;9.15;80.29
41044;BME280;51680;49.806;18.774;2023-04-21T02:21:08;97531.53;;;9.14;80.71
41044;BME280;51680;49.806;18.774;2023-04-21T02:24:11;97517.59;;;9.15;80.62
41044;BME280;51680;49.806;18.774;2023-04-21T02:27:13;97519.84;;;9.21;80.52
41044;BME280;51680;49.806;18.774;2023-04-21T02:30:15;97514.94;;;9.31;80.05
41044;BME280;51680;49.806;18.774;2023-04-21T02:33:17;97515.09;;;9.43;79.51
41044;BME280;51680;49.806;18.774;2023-04-21T02:36:19;97518.28;;;9.48;79.22
41044;BME280;51680;49.806;18.774;2023-04-21T02:39:22;97522.72;;;9.46;79.22
41044;BME280;51680;49.806;18.774;2023-04-21T02:42:24;97519.97;;;9.34;79.67
41044;BME280;51680;49.806;18.774;2023-04-21T02:45:26;97520.41;;;9.26;79.57
41044;BME280;51680;49.806;18.774;2023-04-21T02:48:28;97521.50;;;9.22;79.78
41044;BME280;51680;49.806;18.774;2023-04-21T02:51:29;97516.16;;;9.25;79.82
41044;BME280;51680;49.806;18.774;2023-04-21T02:54:33;97520.06;;;9.32;79.32
41044;BME280;51680;49.806;18.774;2023-04-21T02:57:37;97512.50;;;9.43;79.20
41044;BME280;51680;49.806;18.774;2023-04-21T03:00:40;97519.44;;;9.58;78.68
41044;BME280;51680;49.806;18.774;2023-04-21T03:03:42;97519.72;;;9.68;78.59
41044;BME280;51680;49.806;18.774;2023-04-21T03:06:45;97520.03;;;9.77;78.53
41044;BME280;51680;49.806;18.774;2023-04-21T03:09:48;97511.47;;;9.89;77.83
41044;BME280;51680;49.806;18.774;2023-04-21T03:12:50;97514.19;;;10.02;77.75
41044;BME280;51680;49.806;18.774;2023-04-21T03:16:10;97507.81;;;10.21;77.11
41044;BME280;51680;49.806;18.774;2023-04-21T03:19:12;97515.44;;;10.38;76.86
41044;BME280;51680;49.806;18.774;2023-04-21T03:22:14;97512.00;;;10.52;76.83
41044;BME280;51680;49.806;18.774;2023-04-21T03:25:17;97510.59;;;10.60;76.44
41044;BME280;51680;49.806;18.774;2023-04-21T03:28:38;97515.16;;;10.57;76.24
41044;BME280;51680;49.806;18.774;2023-04-21T03:31:39;97513.03;;;10.49;76.31
41044;BME280;51680;49.806;18.774;2023-04-21T03:34:41;97520.41;;;10.43;76.97
41044;BME280;51680;49.806;18.774;2023-04-21T03:37:43;97512.81;;;10.38;76.78
41044;BME280;51680;49.806;18.774;2023-04-21T03:40:46;97521.81;;;10.34;77.15
41044;BME280;51680;49.806;18.774;2023-04-21T03:43:49;97512.66;;;10.41;76.84
41044;BME280;51680;49.806;18.774;2023-04-21T03:46:52;97517.97;;;10.54;76.58
41044;BME280;51680;49.806;18.774;2023-04-21T03:49:56;97524.19;;;10.65;76.45
41044;BME280;51680;49.806;18.774;2023-04-21T03:52:58;97522.31;;;10.67;76.59
41044;BME280;51680;49.806;18.774;2023-04-21T03:56:01;97523.81;;;10.71;76.43
41044;BME280;51680;49.806;18.774;2023-04-21T03:59:03;97521.94;;;10.73;76.26
41044;BME280;51680;49.806;18.774;2023-04-21T04:02:05;97524.72;;;10.84;76.22
41044;BME280;51680;49.806;18.774;2023-04-21T04:05:07;97524.78;;;10.97;75.95
41044;BME280;51680;49.806;18.774;2023-04-21T04:08:09;97527.34;;;11.11;75.50
41044;BME280;51680;49.806;18.774;2023-04-21T04:11:12;97530.28;;;11.33;75.38
41044;BME280;51680;49.806;18.774;2023-04-21T04:14:14;97528.78;;;11.55;74.88
41044;BME280;51680;49.806;18.774;2023-04-21T04:17:16;97529.06;;;11.77;74.13
41044;BME280;51680;49.806;18.774;2023-04-21T04:20:18;97535.06;;;11.92;73.82
41044;BME280;51680;49.806;18.774;2023-04-21T04:23:19;97534.13;;;12.05;74.02
41044;BME280;51680;49.806;18.774;2023-04-21T04:26:23;97532.44;;;12.29;73.38
41044;BME280;51680;49.806;18.774;2023-04-21T04:29:25;97543.84;;;12.53;72.86
41044;BME280;51680;49.806;18.774;2023-04-21T04:32:27;97544.16;;;12.61;72.15
41044;BME280;51680;49.806;18.774;2023-04-21T04:35:29;97548.78;;;12.58;72.17
41044;BME280;51680;49.806;18.774;2023-04-21T04:38:31;97539.16;;;12.71;71.15
41044;BME280;51680;49.806;18.774;2023-04-21T04:41:35;97539.19;;;12.94;70.17
41044;BME280;51680;49.806;18.774;2023-04-21T04:44:37;97539.25;;;13.18;70.32
41044;BME280;51680;49.806;18.774;2023-04-21T04:47:41;97539.09;;;13.55;69.28
41044;BME280;51680;49.806;18.774;2023-04-21T04:50:44;97537.81;;;13.95;68.60
41044;BME280;51680;49.806;18.774;2023-04-21T04:53:46;97529.56;;;14.34;67.69
41044;BME280;51680;49.806;18.774;2023-04-21T04:56:49;97535.31;;;14.72;66.89
41044;BME280;51680;49.806;18.774;2023-04-21T04:59:53;97528.38;;;15.04;66.26
41044;BME280;51680;49.806;18.774;2023-04-21T05:02:55;97535.13;;;15.40;65.45
41044;BME280;51680;49.806;18.774;2023-04-21T05:05:57;97533.31;;;15.72;64.48
41044;BME280;51680;49.806;18.774;2023-04-21T05:08:58;97543.25;;;16.00;63.61
41044;BME280;51680;49.806;18.774;2023-04-21T05:12:01;97539.63;;;16.32;63.24
41044;BME280;51680;49.806;18.774;2023-04-21T05:15:04;97529.81;;;16.64;62.37
41044;BME280;51680;49.806;18.774;2023-04-21T05:18:06;97526.03;;;16.87;61.66
41044;BME280;51680;49.806;18.774;2023-04-21T05:21:07;97534.38;;;16.92;60.79
41044;BME280;51680;49.806;18.774;2023-04-21T05:24:09;97533.38;;;17.23;59.81
41044;BME280;51680;49.806;18.774;2023-04-21T05:27:12;97530.81;;;17.52;58.26
41044;BME280;51680;49.806;18.774;2023-04-21T05:30:14;97533.44;;;17.80;57.50
41044;BME280;51680;49.806;18.774;2023-04-21T05:33:17;97525.66;;;18.07;56.99
41044;BME280;51680;49.806;18.774;2023-04-21T05:36:18;97529.97;;;18.37;56.03
41044;BME280;51680;49.806;18.774;2023-04-21T05:39:20;97527.81;;;18.60;55.43
41044;BME280;51680;49.806;18.774;2023-04-21T05:42:23;97526.59;;;18.91;55.01
41044;BME280;51680;49.806;18.774;2023-04-21T05:45:25;97527.97;;;19.22;54.25
41044;BME280;51680;49.806;18.774;2023-04-21T05:48:27;97524.59;;;19.56;53.02
41044;BME280;51680;49.806;18.774;2023-04-21T05:51:29;97527.75;;;19.95;52.44
41044;BME280;51680;49.806;18.774;2023-04-21T05:54:32;97524.91;;;20.23;52.03
41044;BME280;51680;49.806;18.774;2023-04-21T05:57:35;97526.38;;;20.43;51.07
41044;BME280;51680;49.806;18.774;2023-04-21T06:00:36;97526.09;;;20.54;50.92
41044;BME280;51680;49.806;18.774;2023-04-21T06:03:38;97526.19;;;20.70;50.61
41044;BME280;51680;49.806;18.774;2023-04-21T06:06:40;97521.53;;;20.90;49.85
41044;BME280;51680;49.806;18.774;2023-04-21T06:09:42;97518.63;;;21.09;49.86
41044;BME280;51680;49.806;18.774;2023-04-21T06:12:45;97524.66;;;21.19;49.18
41044;BME280;51680;49.806;18.774;2023-04-21T06:15:47;97524.03;;;21.33;49.04
41044;BME280;51680;49.806;18.774;2023-04-21T06:18:49;97530.06;;;21.51;48.30
41044;BME280;51680;49.806;18.774;2023-04-21T06:21:51;97529.59;;;21.63;48.32
41044;BME280;51680;49.806;18.774;2023-04-21T06:24:52;97533.97;;;21.80;47.68
41044;BME280;51680;49.806;18.774;2023-04-21T06:27:56;97528.03;;;22.02;47.04
41044;BME280;51680;49.806;18.774;2023-04-21T06:30:58;97529.84;;;22.26;46.83
41044;BME280;51680;49.806;18.774;2023-04-21T06:34:00;97526.53;;;22.00;46.27
41044;BME280;51680;49.806;18.774;2023-04-21T06:37:02;97522.56;;;22.12;45.93
41044;BME280;51680;49.806;18.774;2023-04-21T06:40:04;97521.38;;;22.38;45.72
41044;BME280;51680;49.806;18.774;2023-04-21T06:43:08;97522.88;;;22.33;44.41
41044;BME280;51680;49.806;18.774;2023-04-21T06:46:09;97520.56;;;22.22;46.42
41044;BME280;51680;49.806;18.774;2023-04-21T06:49:11;97521.56;;;22.45;46.06
41044;BME280;51680;49.806;18.774;2023-04-21T06:52:13;97524.84;;;22.63;45.72
41044;BME280;51680;49.806;18.774;2023-04-21T06:55:15;97520.84;;;22.75;45.13
41044;BME280;51680;49.806;18.774;2023-04-21T06:58:18;97528.53;;;22.62;45.14
41044;BME280;51680;49.806;18.774;2023-04-21T07:01:20;97527.31;;;22.80;45.34
41044;BME280;51680;49.806;18.774;2023-04-21T07:04:23;97527.03;;;22.67;44.72
41044;BME280;51680;49.806;18.774;2023-04-21T07:07:29;97520.88;;;22.27;44.90
41044;BME280;51680;49.806;18.774;2023-04-21T07:10:31;97530.19;;;22.23;45.66
41044;BME280;51680;49.806;18.774;2023-04-21T07:13:34;97530.75;;;21.61;44.90
41044;BME280;51680;49.806;18.774;2023-04-21T07:16:36;97534.28;;;21.69;45.37
41044;BME280;51680;49.806;18.774;2023-04-21T07:19:37;97524.03;;;21.98;45.09
41044;BME280;51680;49.806;18.774;2023-04-21T07:22:39;97525.44;;;21.61;45.02
41044;BME280;51680;49.806;18.774;2023-04-21T07:25:41;97526.88;;;20.98;46.05
41044;BME280;51680;49.806;18.774;2023-04-21T07:28:44;97520.28;;;21.10;46.07
41044;BME280;51680;49.806;18.774;2023-04-21T07:31:46;97517.91;;;21.40;46.71
41044;BME280;51680;49.806;18.774;2023-04-21T07:34:48;97528.28;;;21.67;45.93
41044;BME280;51680;49.806;18.774;2023-04-21T07:37:50;97521.22;;;21.84;45.24
41044;BME280;51680;49.806;18.774;2023-04-21T07:40:52;97528.03;;;22.10;45.14
41044;BME280;51680;49.806;18.774;2023-04-21T07:43:55;97516.38;;;22.27;44.92
41044;BME280;51680;49.806;18.774;2023-04-21T07:46:57;97513.56;;;22.53;45.08
41044;BME280;51680;49.806;18.774;2023-04-21T07:49:59;97514.69;;;22.74;44.26
41044;BME280;51680;49.806;18.774;2023-04-21T07:53:00;97512.56;;;22.14;44.81
41044;BME280;51680;49.806;18.774;2023-04-21T07:56:02;97507.59;;;22.51;45.08
41044;BME280;51680;49.806;18.774;2023-04-21T07:59:07;97502.69;;;22.78;43.24
41044;BME280;51680;49.806;18.774;2023-04-21T08:02:09;97510.91;;;22.61;44.49
41044;BME280;51680;49.806;18.774;2023-04-21T08:05:11;97524.53;;;21.86;46.10
41044;BME280;51680;49.806;18.774;2023-04-21T08:08:13;97509.91;;;22.06;44.93
41044;BME280;51680;49.806;18.774;2023-04-21T08:11:19;97500.75;;;22.32;44.90
41044;BME280;51680;49.806;18.774;2023-04-21T08:14:23;97504.03;;;22.66;44.29
41044;BME280;51680;49.806;18.774;2023-04-21T08:17:26;97504.84;;;22.83;43.52
41044;BME280;51680;49.806;18.774;2023-04-21T08:20:28;97500.56;;;22.74;43.83
41044;BME280;51680;49.806;18.774;2023-04-21T08:23:29;97502.31;;;22.97;43.11
41044;BME280;51680;49.806;18.774;2023-04-21T08:26:31;97495.59;;;23.09;42.36
41044;BME280;51680;49.806;18.774;2023-04-21T08:29:34;97494.41;;;23.20;40.36
41044;BME280;51680;49.806;18.774;2023-04-21T08:32:36;97492.44;;;23.22;41.64
41044;BME280;51680;49.806;18.774;2023-04-21T08:35:38;97493.75;;;23.10;41.18
41044;BME280;51680;49.806;18.774;2023-04-21T08:38:41;97490.41;;;22.69;41.57
41044;BME280;51680;49.806;18.774;2023-04-21T08:41:44;97495.94;;;22.60;42.37
41044;BME280;51680;49.806;18.774;2023-04-21T08:44:47;97492.59;;;22.58;40.91
41044;BME280;51680;49.806;18.774;2023-04-21T08:47:49;97490.41;;;22.77;41.47
41044;BME280;51680;49.806;18.774;2023-04-21T08:50:51;97490.41;;;22.61;40.61
41044;BME280;51680;49.806;18.774;2023-04-21T08:53:54;97486.63;;;22.56;40.42
41044;BME280;51680;49.806;18.774;2023-04-21T08:56:56;97488.59;;;22.54;40.01
41044;BME280;51680;49.806;18.774;2023-04-21T08:59:59;97484.91;;;22.71;39.94
41044;BME280;51680;49.806;18.774;2023-04-21T09:03:02;97477.03;;;22.85;39.71
41044;BME280;51680;49.806;18.774;2023-04-21T09:06:06;97476.16;;;23.01;39.58
41044;BME280;51680;49.806;18.774;2023-04-21T09:09:08;97479.66;;;23.01;39.04
41044;BME280;51680;49.806;18.774;2023-04-21T09:12:10;97481.47;;;23.01;39.03
41044;BME280;51680;49.806;18.774;2023-04-21T09:15:13;97473.19;;;22.88;39.12
41044;BME280;51680;49.806;18.774;2023-04-21T09:18:17;97479.81;;;22.53;40.89
41044;BME280;51680;49.806;18.774;2023-04-21T09:21:19;97483.81;;;22.57;38.76
41044;BME280;51680;49.806;18.774;2023-04-21T09:24:22;97475.34;;;22.46;39.77
41044;BME280;51680;49.806;18.774;2023-04-21T09:27:43;97475.63;;;22.59;39.44
41044;BME280;51680;49.806;18.774;2023-04-21T09:30:46;97466.66;;;22.60;38.08
41044;BME280;51680;49.806;18.774;2023-04-21T09:34:17;97460.41;;;22.91;37.88
41044;BME280;51680;49.806;18.774;2023-04-21T09:37:19;97464.59;;;23.16;38.16
41044;BME280;51680;49.806;18.774;2023-04-21T09:40:24;97466.25;;;23.25;38.41
41044;BME280;51680;49.806;18.774;2023-04-21T09:43:26;97460.44;;;23.14;38.71
41044;BME280;51680;49.806;18.774;2023-04-21T09:46:31;97460.25;;;23.23;37.16
41044;BME280;51680;49.806;18.774;2023-04-21T09:49:34;97453.63;;;23.19;36.30
41044;BME280;51680;49.806;18.774;2023-04-21T09:52:42;97449.91;;;22.11;36.49
41044;BME280;51680;49.806;18.774;2023-04-21T09:55:46;97456.22;;;22.10;36.37
41044;BME280;51680;49.806;18.774;2023-04-21T09:58:52;97446.09;;;22.22;37.24
41044;BME280;51680;49.806;18.774;2023-04-21T10:01:56;97450.22;;;22.24;34.04
41044;BME280;51680;49.806;18.774;2023-04-21T10:05:00;97452.06;;;22.00;36.67
41044;BME280;51680;49.806;18.774;2023-04-21T10:08:02;97453.03;;;20.93;35.15
41044;BME280;51680;49.806;18.774;2023-04-21T10:11:07;97451.88;;;20.62;37.36
41044;BME280;51680;49.806;18.774;2023-04-21T10:14:08;97434.53;;;20.42;35.82
41044;BME280;51680;49.806;18.774;2023-04-21T10:17:12;97443.75;;;20.97;34.71
41044;BME280;51680;49.806;18.774;2023-04-21T10:20:14;97432.19;;;21.14;33.50
41044;BME280;51680;49.806;18.774;2023-04-21T10:23:25;97427.97;;;21.61;35.08
41044;BME280;51680;49.806;18.774;2023-04-21T10:26:33;97427.97;;;22.01;34.30
41044;BME280;51680;49.806;18.774;2023-04-21T10:29:35;97412.34;;;22.14;33.67
41044;BME280;51680;49.806;18.774;2023-04-21T10:32:42;97445.47;;;21.14;31.04
41044;BME280;51680;49.806;18.774;2023-04-21T10:35:58;97426.44;;;20.52;32.85
41044;BME280;51680;49.806;18.774;2023-04-21T10:39:01;97422.66;;;20.96;34.76
41044;BME280;51680;49.806;18.774;2023-04-21T10:42:26;97426.75;;;21.32;32.18
41044;BME280;51680;49.806;18.774;2023-04-21T10:45:29;97419.16;;;21.61;34.50
41044;BME280;51680;49.806;18.774;2023-04-21T10:48:37;97406.34;;;20.83;31.63
41044;BME280;51680;49.806;18.774;2023-04-21T10:52:03;97408.66;;;20.78;33.10
41044;BME280;51680;49.806;18.774;2023-04-21T10:55:07;97412.69;;;20.90;34.34
41044;BME280;51680;49.806;18.774;2023-04-21T10:58:14;97413.91;;;21.03;31.76
41044;BME280;51680;49.806;18.774;2023-04-21T11:01:16;97403.13;;;20.97;33.93
41044;BME280;51680;49.806;18.774;2023-04-21T11:04:20;97403.25;;;20.54;33.13
41044;BME280;51680;49.806;18.774;2023-04-21T11:07:23;97394.88;;;19.90;33.51
41044;BME280;51680;49.806;18.774;2023-04-21T11:10:25;97395.63;;;20.25;35.25
41044;BME280;51680;49.806;18.774;2023-04-21T11:13:27;97397.13;;;20.53;34.92
41044;BME280;51680;49.806;18.774;2023-04-21T11:16:33;97392.41;;;20.81;34.83
41044;BME280;51680;49.806;18.774;2023-04-21T11:19:38;97397.53;;;21.16;34.85
41044;BME280;51680;49.806;18.774;2023-04-21T11:22:40;97389.66;;;20.57;33.55
41044;BME280;51680;49.806;18.774;2023-04-21T11:25:44;97393.16;;;20.65;35.24
41044;BME280;51680;49.806;18.774;2023-04-21T11:28:47;97378.81;;;20.84;35.36
41044;BME280;51680;49.806;18.774;2023-04-21T11:31:52;97385.97;;;19.73;34.73
41044;BME280;51680;49.806;18.774;2023-04-21T11:34:55;97382.47;;;19.90;35.48
41044;BME280;51680;49.806;18.774;2023-04-21T11:37:57;97385.53;;;20.03;36.02
41044;BME280;51680;49.806;18.774;2023-04-21T11:40:59;97379.50;;;20.11;35.53
41044;BME280;51680;49.806;18.774;2023-04-21T11:44:01;97376.16;;;20.09;36.08
41044;BME280;51680;49.806;18.774;2023-04-21T11:47:13;97370.56;;;20.20;34.55
41044;BME280;51680;49.806;18.774;2023-04-21T11:50:30;97370.13;;;20.24;33.87
41044;BME280;51680;49.806;18.774;2023-04-21T11:53:32;97373.81;;;20.06;36.28
41044;BME280;51680;49.806;18.774;2023-04-21T11:56:35;97368.19;;;20.09;35.67
41044;BME280;51680;49.806;18.774;2023-04-21T11:59:37;97368.66;;;20.30;36.16
41044;BME280;51680;49.806;18.774;2023-04-21T12:02:39;97369.19;;;20.41;35.85
41044;BME280;51680;49.806;18.774;2023-04-21T12:05:42;97363.72;;;20.35;36.24
41044;BME280;51680;49.806;18.774;2023-04-21T12:08:44;97357.50;;;20.60;35.69
41044;BME280;51680;49.806;18.774;2023-04-21T12:11:46;97360.50;;;20.65;35.89
41044;BME280;51680;49.806;18.774;2023-04-21T12:14:50;97362.50;;;20.04;35.75
41044;BME280;51680;49.806;18.774;2023-04-21T12:17:53;97360.31;;;20.25;35.69
41044;BME280;51680;49.806;18.774;2023-04-21T12:21:00;97350.63;;;20.41;36.28
41044;BME280;51680;49.806;18.774;2023-04-21T12:24:02;97345.41;;;20.65;37.00
41044;BME280;51680;49.806;18.774;2023-04-21T12:27:04;97345.13;;;20.76;36.38
41044;BME280;51680;49.806;18.774;2023-04-21T12:30:08;97341.59;;;20.68;35.81
41044;BME280;51680;49.806;18.774;2023-04-21T12:33:10;97338.25;;;20.50;36.91
41044;BME280;51680;49.806;18.774;2023-04-21T12:36:13;97341.59;;;20.01;34.74
41044;BME280;51680;49.806;18.774;2023-04-21T12:39:16;97350.38;;;20.19;36.94
41044;BME280;51680;49.806;18.774;2023-04-21T12:42:18;97349.03;;;19.72;34.08
41044;BME280;51680;49.806;18.774;2023-04-21T12:45:20;97340.94;;;19.48;35.98
41044;BME280;51680;49.806;18.774;2023-04-21T12:48:21;97341.66;;;19.58;35.30
41044;BME280;51680;49.806;18.774;2023-04-21T12:51:24;97334.22;;;19.18;34.83
41044;BME280;51680;49.806;18.774;2023-04-21T12:54:26;97328.84;;;19.28;36.51
41044;BME280;51680;49.806;18.774;2023-04-21T12:57:28;97339.75;;;19.42;35.07
41044;BME280;51680;49.806;18.774;2023-04-21T13:00:31;97335.63;;;19.48;36.28
41044;BME280;51680;49.806;18.774;2023-04-21T13:03:35;97319.97;;;19.54;36.02
41044;BME280;51680;49.806;18.774;2023-04-21T13:06:38;97318.22;;;19.63;35.97
41044;BME280;51680;49.806;18.774;2023-04-21T13:09:40;97319.75;;;19.48;36.02
41044;BME280;51680;49.806;18.774;2023-04-21T13:12:42;97318.31;;;19.79;36.15
41044;BME280;51680;49.806;18.774;2023-04-21T13:15:44;97312.78;;;19.98;35.39
41044;BME280;51680;49.806;18.774;2023-04-21T13:18:45;97321.72;;;19.97;34.61
41044;BME280;51680;49.806;18.774;2023-04-21T13:21:48;97316.09;;;20.00;34.75
41044;BME280;51680;49.806;18.774;2023-04-21T13:24:50;97316.38;;;19.63;34.63
41044;BME280;51680;49.806;18.774;2023-04-21T13:27:52;97294.47;;;19.53;34.65
41044;BME280;51680;49.806;18.774;2023-04-21T13:30:54;97299.72;;;19.71;35.63
41044;BME280;51680;49.806;18.774;2023-04-21T13:33:56;97318.94;;;19.73;34.67
41044;BME280;51680;49.806;18.774;2023-04-21T13:36:59;97308.34;;;19.73;33.82
41044;BME280;51680;49.806;18.774;2023-04-21T13:40:00;97306.72;;;19.80;35.23
41044;BME280;51680;49.806;18.774;2023-04-21T13:43:04;97302.50;;;19.95;35.55
41044;BME280;51680;49.806;18.774;2023-04-21T13:46:05;97303.00;;;19.98;34.71
41044;BME280;51680;49.806;18.774;2023-04-21T13:49:07;97290.88;;;19.88;33.65
41044;BME280;51680;49.806;18.774;2023-04-21T13:52:10;97292.69;;;19.87;34.33
41044;BME280;51680;49.806;18.774;2023-04-21T13:55:12;97301.69;;;19.69;33.22
41044;BME280;51680;49.806;18.774;2023-04-21T13:58:14;97285.28;;;19.05;35.34
41044;BME280;51680;49.806;18.774;2023-04-21T14:01:17;97287.47;;;19.09;35.57
41044;BME280;51680;49.806;18.774;2023-04-21T14:04:18;97289.97;;;19.11;35.30
41044;BME280;51680;49.806;18.774;2023-04-21T14:07:22;97289.28;;;19.09;35.38
41044;BME280;51680;49.806;18.774;2023-04-21T14:10:24;97285.22;;;19.14;34.54
41044;BME280;51680;49.806;18.774;2023-04-21T14:13:26;97282.94;;;18.67;34.31
41044;BME280;51680;49.806;18.774;2023-04-21T14:16:28;97285.59;;;18.67;34.46
41044;BME280;51680;49.806;18.774;2023-04-21T14:19:30;97289.44;;;18.90;34.59
41044;BME280;51680;49.806;18.774;2023-04-21T14:22:33;97290.09;;;18.57;32.97
41044;BME280;51680;49.806;18.774;2023-04-21T14:25:35;97280.66;;;18.54;34.76
41044;BME280;51680;49.806;18.774;2023-04-21T14:28:37;97272.00;;;18.79;34.54
41044;BME280;51680;49.806;18.774;2023-04-21T14:31:38;97273.88;;;19.04;33.95
41044;BME280;51680;49.806;18.774;2023-04-21T14:34:40;97270.53;;;19.02;33.51
41044;BME280;51680;49.806;18.774;2023-04-21T14:37:43;97273.13;;;18.94;33.94
41044;BME280;51680;49.806;18.774;2023-04-21T14:40:45;97263.19;;;19.14;34.32
41044;BME280;51680;49.806;18.774;2023-04-21T14:43:49;97268.13;;;19.26;34.29
41044;BME280;51680;49.806;18.774;2023-04-21T14:46:53;97264.13;;;19.22;33.85
41044;BME280;51680;49.806;18.774;2023-04-21T14:49:55;97248.91;;;19.24;33.33
41044;BME280;51680;49.806;18.774;2023-04-21T14:52:58;97244.50;;;19.33;33.43
41044;BME280;51680;49.806;18.774;2023-04-21T14:56:00;97238.53;;;19.31;34.15
41044;BME280;51680;49.806;18.774;2023-04-21T14:59:02;97261.38;;;19.14;33.93
41044;BME280;51680;49.806;18.774;2023-04-21T15:02:04;97244.19;;;18.75;32.61
41044;BME280;51680;49.806;18.774;2023-04-21T15:05:06;97238.44;;;18.80;33.19
41044;BME280;51680;49.806;18.774;2023-04-21T15:08:10;97249.78;;;18.72;32.70
41044;BME280;51680;49.806;18.774;2023-04-21T15:11:14;97234.38;;;18.68;33.50
41044;BME280;51680;49.806;18.774;2023-04-21T15:14:16;97238.03;;;18.92;34.28
41044;BME280;51680;49.806;18.774;2023-04-21T15:17:18;97229.56;;;19.06;33.93
41044;BME280;51680;49.806;18.774;2023-04-21T15:20:20;97229.84;;;19.21;33.85
41044;BME280;51680;49.806;18.774;2023-04-21T15:23:23;97234.16;;;19.22;33.68
41044;BME280;51680;49.806;18.774;2023-04-21T15:26:24;97234.00;;;18.63;33.21
41044;BME280;51680;49.806;18.774;2023-04-21T15:29:26;97239.06;;;18.39;33.38
41044;BME280;51680;49.806;18.774;2023-04-21T15:32:28;97229.59;;;18.36;34.48
41044;BME280;51680;49.806;18.774;2023-04-21T15:35:30;97237.38;;;18.10;33.12
41044;BME280;51680;49.806;18.774;2023-04-21T15:38:33;97236.28;;;18.30;34.02
41044;BME280;51680;49.806;18.774;2023-04-21T15:41:35;97234.34;;;18.33;34.30
41044;BME280;51680;49.806;18.774;2023-04-21T15:44:37;97229.34;;;18.29;33.75
41044;BME280;51680;49.806;18.774;2023-04-21T15:47:38;97233.84;;;18.19;33.82
41044;BME280;51680;49.806;18.774;2023-04-21T15:50:40;97226.06;;;18.18;33.47
41044;BME280;51680;49.806;18.774;2023-04-21T15:53:45;97235.03;;;18.07;33.72
41044;BME280;51680;49.806;18.774;2023-04-21T15:56:48;97222.81;;;18.06;34.04